Glen Gardner, NJ

1:17 PM EDT on July 01, 2015 (GMT -0400)
St.Nicholas Village | | Change Station
CLOSE
Current Station
Personal Weather Station
Location: Glen Gardner, NJ
Elevation: 951 ft
Nearby Weather Stations

Elev 951 ft 40.75 °N, 74.87 °W | Updated 10 seconds ago

Partly Cloudy
Partly Cloudy
76.6 °F
Feels Like 78 °F
N
4.5
Wind Variable Wind from South
Gusts 6.0 mph

Today
High -- | Low -- °F
--% Chance of Precip.
Yesterday
High -- | Low -- °F
Precip. -- in
5:31 AM 8:34 PM
Full, 100% visible
Pressure 29.79 in
Visibility 9.0 miles
Clouds Few 3800 ft
Few 6000 ft
Heat Index 78 °F
Dew Point 65 °F
Humidity 68%
Rainfall 0.25 in
Snow Depth Not available.
UV 0.0 out of 12
Pollen .50 out of 12
Air Quality Not available.
Flu Activity Not available.
METAR KSMQ 011653Z AUTO VRB03KT 9SM FEW038 FEW060 26/17 A2979 RMK AO2 SLP087 T02560172

More Conditions Fewer Conditions

Pressure 29.79 in
Visibility 9.0 miles
Clouds Few 3800 ft
Few 6000 ft
Heat Index 78 °F
Dew Point 65 °F
Humidity 68%
Rainfall 0.25 in
Snow Depth Not available.
UV 0.0 out of 12
Pollen .50 out of 12
Air Quality Not available.
Flu Activity Not available.
METAR KSMQ 011653Z AUTO VRB03KT 9SM FEW038 FEW060 26/17 A2979 RMK AO2 SLP087 T02560172

More Conditions Fewer Conditions

10-Day Weather Forecast

×

Almanac

Astronomy

Jul. 01, 2015 Rise Set
Actual Time
Civil Twilight
Nautical Twilight
Astronomical Twilight
Moon
Length of Visible Light
Length of Day
Tomorrow will be .
, % of the Moon is Illuminated

Today's Extremes

State Highs State Lows

Community

WunderPhotos

Upload Photos

1,834,248 photos uploaded!

WunderBlogs® & News

Nearby

Air Quality

  Air Quality AQ Index Pollutant
Not available.

Snow Depth

Station Depth Elevation

Earthquake Activity

City Distance Mag. Time & Date
Minimum magnitude displayed is 2.5.

Coastal Water Temperatures

Place Temperature

Stations

Nearby Weather Stations

Station Location Temp. Windchill Dew Point Humidity Wind Precip. Elev Updated Type